Time;durP1;ratioP1;P1;durP2;ratioP2;P2;SDS_P1;SDS_P2;PMS_P1;PMS_P2;Temp;Humidity;BMP_temperature;BMP_pressure;BME280_temperature;BME280_humidity;BME280_pressure;Samples;Min_cycle;Max_cycle;Signal;HPM_P1;HPM_P2
2021/03/06 00:01:36;;;;;;;;;;;;;;;5.17;49.86;102593.03;5002055;28;6966;-81
2021/03/06 00:04:02;;;;;;;;;;;;;;;5.14;50.06;102595.38;4985289;28;8536;-81
2021/03/06 00:06:27;;;;;;;;;;;;;;;5.09;49.98;102594.16;5002305;28;7667;-81
2021/03/06 00:08:53;;;;;;;;;;;;;;;5.08;50.12;102597.50;5001053;28;7526;-82
2021/03/06 00:11:18;;;;;;;;;;;;;;;5.04;49.27;102600.66;5001325;28;7238;-81
2021/03/06 00:13:44;;;;;;;;;;;;;;;5.00;50.19;102603.75;5002209;28;7045;-81
2021/03/06 00:16:09;;;;;;;;;;;;;;;4.95;50.51;102609.34;5002190;28;7155;-81
2021/03/06 00:18:35;;;;;;;;;;;;;;;4.93;50.13;102610.91;5019442;28;8783;-81
2021/03/06 00:21:00;;;;;;;;;;;;;;;4.88;49.62;102615.72;5003586;28;7111;-82
2021/03/06 00:23:26;;;;;;;;;;;;;;;4.87;49.87;102611.34;5001977;28;7371;-81
2021/03/06 00:25:51;;;;;;;;;;;;;;;4.83;49.62;102609.34;4990578;28;8739;-81
2021/03/06 00:28:17;;;;;;;;;;;;;;;4.76;50.16;102613.09;4997342;28;6816;-81
2021/03/06 00:30:44;;;;;;;;;;;;;;;4.75;50.16;102606.16;4993217;28;6788;-81
2021/03/06 00:33:09;;;;;;;;;;;;;;;4.71;50.23;102610.97;5017482;28;7993;-81
2021/03/06 00:35:35;;;;;;;;;;;;;;;4.67;50.65;102609.84;5002753;28;7094;-81
2021/03/06 00:38:00;;;;;;;;;;;;;;;4.63;50.72;102614.63;5003376;28;8423;-82
2021/03/06 00:40:26;;;;;;;;;;;;;;;4.58;50.85;102610.00;5003366;28;11234;-82
2021/03/06 00:42:51;;;;;;;;;;;;;;;4.55;50.84;102612.34;5018093;28;6820;-82
2021/03/06 00:45:18;;;;;;;;;;;;;;;4.53;50.65;102616.47;5001322;28;7254;-82
2021/03/06 00:47:44;;;;;;;;;;;;;;;4.52;50.42;102614.69;5017089;28;7529;-81
2021/03/06 00:50:11;;;;;;;;;;;;;;;4.45;50.88;102620.16;5000057;28;7249;-81
2021/03/06 00:52:37;;;;;;;;;;;;;;;4.40;50.92;102613.72;5001781;28;7218;-81
2021/03/06 00:55:03;;;;;;;;;;;;;;;4.37;51.08;102620.31;5000616;28;6962;-82
2021/03/06 00:57:28;;;;;;;;;;;;;;;4.33;50.72;102614.03;5003976;28;6804;-81
2021/03/06 00:59:54;;;;;;;;;;;;;;;4.30;51.20;102618.94;4988563;28;8298;-81
2021/03/06 01:02:20;;;;;;;;;;;;;;;4.29;51.03;102619.72;5011979;28;8390;-81
2021/03/06 01:04:45;;;;;;;;;;;;;;;4.26;51.25;102614.34;5003528;28;7361;-81
2021/03/06 01:07:11;;;;;;;;;;;;;;;4.24;51.04;102627.09;5000576;28;7190;-82
2021/03/06 01:09:36;;;;;;;;;;;;;;;4.20;51.17;102619.88;5000313;28;7223;-81
2021/03/06 01:12:02;;;;;;;;;;;;;;;4.13;51.19;102614.16;5001633;28;6857;-81
2021/03/06 01:14:27;;;;;;;;;;;;;;;4.12;51.45;102625.22;4996896;28;11041;-81
2021/03/06 01:16:53;;;;;;;;;;;;;;;4.11;51.06;102626.88;5000079;28;7202;-82
2021/03/06 01:19:18;;;;;;;;;;;;;;;4.06;51.37;102620.50;5016433;28;7847;-81
2021/03/06 01:21:44;;;;;;;;;;;;;;;4.02;50.67;102621.03;4986249;28;8755;-81
2021/03/06 01:24:09;;;;;;;;;;;;;;;3.97;51.37;102624.88;5017855;28;7150;-81
2021/03/06 01:26:36;;;;;;;;;;;;;;;3.94;50.87;102624.66;5003091;28;7198;-81
2021/03/06 01:29:01;;;;;;;;;;;;;;;3.91;51.68;102625.31;5016775;28;7174;-82
2021/03/06 01:31:27;;;;;;;;;;;;;;;3.90;51.50;102622.63;4999864;28;8441;-81
2021/03/06 01:33:53;;;;;;;;;;;;;;;3.80;52.19;102618.41;5000223;28;7860;-81
2021/03/06 01:36:18;;;;;;;;;;;;;;;3.83;51.67;102616.09;5003105;28;7282;-81
2021/03/06 01:38:44;;;;;;;;;;;;;;;3.78;51.29;102612.25;4983676;28;7628;-81
2021/03/06 01:41:09;;;;;;;;;;;;;;;3.76;51.35;102615.47;5000771;28;7771;-82
2021/03/06 01:43:35;;;;;;;;;;;;;;;3.74;51.50;102614.44;4999279;28;6811;-82
2021/03/06 01:46:00;;;;;;;;;;;;;;;3.73;52.14;102615.22;4999280;28;7647;-81
2021/03/06 01:48:26;;;;;;;;;;;;;;;3.69;52.03;102602.91;5016212;28;8657;-81
2021/03/06 01:50:52;;;;;;;;;;;;;;;3.65;51.73;102602.69;5015413;28;7324;-82
2021/03/06 01:53:17;;;;;;;;;;;;;;;3.60;51.91;102603.06;5000684;28;7136;-82
2021/03/06 01:55:46;;;;;;;;;;;;;;;3.60;51.81;102609.13;5001106;28;6803;-81
2021/03/06 01:58:13;;;;;;;;;;;;;;;3.54;51.87;102607.72;5001816;28;6954;-81
2021/03/06 02:00:38;;;;;;;;;;;;;;;3.50;51.76;102611.72;4989107;28;8692;-81
2021/03/06 02:03:04;;;;;;;;;;;;;;;3.53;51.61;102617.09;5018086;28;6876;-82
2021/03/06 02:05:30;;;;;;;;;;;;;;;3.50;51.08;102610.81;5000099;28;6796;-82
2021/03/06 02:07:55;;;;;;;;;;;;;;;3.47;51.97;102605.44;5011576;28;6875;-82
2021/03/06 02:10:28;;;;;;;;;;;;;;;3.43;51.68;102612.00;5002792;28;6795;-81
2021/03/06 02:13:18;;;;;;;;;;;;;;;3.36;52.37;102613.13;5000866;28;7273;-81
2021/03/06 02:16:02;;;;;;;;;;;;;;;3.34;52.48;102612.13;5002494;28;12087;-82
2021/03/06 02:18:35;;;;;;;;;;;;;;;3.32;51.95;102613.66;5001036;28;7163;-81
2021/03/06 02:21:20;;;;;;;;;;;;;;;3.29;52.36;102616.00;5000226;28;11200;-82
2021/03/06 02:24:16;;;;;;;;;;;;;;;3.27;52.21;102620.09;5015177;28;13019;-82
2021/03/06 02:27:27;;;;;;;;;;;;;;;3.23;51.66;102618.06;5002776;28;11341;-82
2021/03/06 02:29:54;;;;;;;;;;;;;;;3.20;52.29;102619.44;4980734;28;11427;-82
2021/03/06 02:32:21;;;;;;;;;;;;;;;3.16;52.52;102618.31;4987789;28;6954;-81
2021/03/06 02:35:11;;;;;;;;;;;;;;;3.15;52.58;102613.94;4989972;28;7226;-81
2021/03/06 02:37:40;;;;;;;;;;;;;;;3.12;52.53;102615.38;5008255;28;11436;-82
2021/03/06 02:40:06;;;;;;;;;;;;;;;3.02;52.68;102614.63;4988063;28;7393;-81
2021/03/06 02:42:32;;;;;;;;;;;;;;;3.04;52.65;102613.06;5004909;28;8070;-81
2021/03/06 02:44:58;;;;;;;;;;;;;;;3.01;52.53;102605.13;5002255;28;7146;-81
2021/03/06 02:47:23;;;;;;;;;;;;;;;2.98;52.29;102609.06;5001411;28;7253;-81
2021/03/06 02:49:56;;;;;;;;;;;;;;;2.95;52.27;102603.69;5002893;28;8640;-81
2021/03/06 02:52:21;;;;;;;;;;;;;;;2.96;52.30;102608.06;5003385;28;8691;-82
2021/03/06 02:54:47;;;;;;;;;;;;;;;2.90;52.63;102605.88;5003913;28;7425;-81
2021/03/06 02:57:55;;;;;;;;;;;;;;;2.87;52.75;102603.06;5002252;28;7782;-81
2021/03/06 03:00:28;;;;;;;;;;;;;;;2.85;52.97;102602.03;4992405;28;11593;-82
2021/03/06 03:03:09;;;;;;;;;;;;;;;2.73;53.30;102601.91;4983017;28;7215;-82
2021/03/06 03:06:07;;;;;;;;;;;;;;;2.79;53.23;102604.06;5002597;28;11298;-81
2021/03/06 03:08:37;;;;;;;;;;;;;;;2.70;53.54;102605.88;5019818;28;11454;-82
2021/03/06 03:11:07;;;;;;;;;;;;;;;2.70;52.92;102604.22;5000162;28;11511;-82
2021/03/06 03:13:41;;;;;;;;;;;;;;;2.66;52.81;102611.53;4989951;28;11692;-82
2021/03/06 03:16:17;;;;;;;;;;;;;;;2.68;52.58;102616.00;4967305;28;11953;-81
2021/03/06 03:18:48;;;;;;;;;;;;;;;2.62;53.44;102610.38;5019300;28;7580;-81
2021/03/06 03:21:15;;;;;;;;;;;;;;;2.60;53.01;102608.41;5006435;28;6989;-81
2021/03/06 03:23:45;;;;;;;;;;;;;;;2.61;52.72;102611.16;5004023;28;7177;-81
2021/03/06 03:26:12;;;;;;;;;;;;;;;2.59;52.61;102612.66;5004287;28;7243;-81
2021/03/06 03:28:39;;;;;;;;;;;;;;;2.55;52.88;102612.28;4998273;28;7287;-81
2021/03/06 03:31:05;;;;;;;;;;;;;;;2.51;53.12;102613.69;5003718;28;9428;-81
2021/03/06 03:33:31;;;;;;;;;;;;;;;2.55;52.55;102619.97;5004806;28;7355;-81
2021/03/06 03:35:57;;;;;;;;;;;;;;;2.46;53.26;102622.66;5002742;28;7261;-81
2021/03/06 03:38:22;;;;;;;;;;;;;;;2.48;52.94;102625.34;5003218;28;6858;-81
2021/03/06 03:40:48;;;;;;;;;;;;;;;2.43;52.67;102624.97;5004382;28;8482;-81
2021/03/06 03:43:13;;;;;;;;;;;;;;;2.43;53.19;102632.66;4999785;28;7339;-81
2021/03/06 03:45:39;;;;;;;;;;;;;;;2.41;52.78;102629.97;5002718;28;8746;-81
2021/03/06 03:48:05;;;;;;;;;;;;;;;2.28;53.30;102632.22;5003542;28;8470;-81
2021/03/06 03:50:30;;;;;;;;;;;;;;;2.34;53.01;102624.16;5002855;28;8409;-81
2021/03/06 03:52:56;;;;;;;;;;;;;;;2.35;52.57;102625.94;5000486;28;7247;-82
2021/03/06 03:55:21;;;;;;;;;;;;;;;2.35;53.46;102633.66;4984178;28;7008;-81
2021/03/06 03:57:47;;;;;;;;;;;;;;;2.32;53.03;102636.84;4999775;28;7526;-81
2021/03/06 04:00:18;;;;;;;;;;;;;;;2.24;53.46;102629.28;5002793;28;7116;-82
2021/03/06 04:02:44;;;;;;;;;;;;;;;2.20;53.31;102638.34;5001821;28;7290;-81
2021/03/06 04:05:10;;;;;;;;;;;;;;;2.16;53.70;102640.50;5018863;28;7312;-81
2021/03/06 04:07:43;;;;;;;;;;;;;;;2.19;52.65;102638.22;5004579;28;7120;-81
2021/03/06 04:10:10;;;;;;;;;;;;;;;2.12;53.41;102637.69;5005444;28;11001;-81
2021/03/06 04:12:36;;;;;;;;;;;;;;;2.10;52.92;102640.88;5019565;28;7404;-81
2021/03/06 04:15:01;;;;;;;;;;;;;;;2.06;53.78;102638.81;5002778;28;7087;-81
2021/03/06 04:17:27;;;;;;;;;;;;;;;2.06;53.14;102639.72;5004498;28;7142;-81
2021/03/06 04:19:52;;;;;;;;;;;;;;;2.04;52.80;102641.25;5002873;28;6787;-81
2021/03/06 04:22:18;;;;;;;;;;;;;;;2.05;53.40;102639.59;5003881;28;7897;-81
2021/03/06 04:24:43;;;;;;;;;;;;;;;2.04;52.76;102641.25;5004655;28;7116;-81
2021/03/06 04:27:09;;;;;;;;;;;;;;;2.03;52.81;102644.59;4987949;28;6832;-81
2021/03/06 04:29:34;;;;;;;;;;;;;;;2.00;52.96;102641.75;5004076;28;8546;-81
2021/03/06 04:32:00;;;;;;;;;;;;;;;1.98;53.56;102643.25;5017376;28;7925;-81
2021/03/06 04:34:25;;;;;;;;;;;;;;;1.93;53.90;102646.19;4999903;28;7223;-81
2021/03/06 04:36:51;;;;;;;;;;;;;;;1.97;52.83;102643.13;5003290;28;7243;-81
2021/03/06 04:39:16;;;;;;;;;;;;;;;1.91;53.70;102646.06;5005639;28;7400;-81
2021/03/06 04:41:42;;;;;;;;;;;;;;;1.88;53.82;102647.47;4990183;28;8731;-81
2021/03/06 04:44:08;;;;;;;;;;;;;;;1.85;53.13;102653.22;5003753;28;7423;-81
2021/03/06 04:46:34;;;;;;;;;;;;;;;1.85;53.29;102653.22;5017917;28;13156;-81
2021/03/06 04:49:02;;;;;;;;;;;;;;;1.87;53.16;102650.78;4999374;28;7296;-82
2021/03/06 04:51:27;;;;;;;;;;;;;;;1.81;53.60;102652.03;4990013;28;8673;-81
2021/03/06 04:53:53;;;;;;;;;;;;;;;1.79;53.45;102650.97;5002746;28;6860;-81
2021/03/06 04:56:18;;;;;;;;;;;;;;;1.76;53.23;102653.28;5005653;28;7440;-81
2021/03/06 04:58:44;;;;;;;;;;;;;;;1.74;53.09;102652.25;5003865;28;6799;-81
2021/03/06 05:01:09;;;;;;;;;;;;;;;1.70;54.29;102656.97;5002828;28;7048;-81
2021/03/06 05:03:35;;;;;;;;;;;;;;;1.72;53.25;102661.47;5005567;28;7207;-81
2021/03/06 05:06:00;;;;;;;;;;;;;;;1.69;54.02;102665.41;5001242;28;6962;-81
2021/03/06 05:08:26;;;;;;;;;;;;;;;1.68;53.50;102659.41;4999376;28;6816;-81
2021/03/06 05:10:51;;;;;;;;;;;;;;;1.66;54.20;102662.59;5018771;28;7079;-81
2021/03/06 05:13:17;;;;;;;;;;;;;;;1.64;53.71;102667.56;5004080;28;7281;-81
2021/03/06 05:15:42;;;;;;;;;;;;;;;1.65;52.97;102671.03;4997948;28;8378;-81
2021/03/06 05:18:08;;;;;;;;;;;;;;;1.57;54.10;102665.19;4996927;28;7114;-81
2021/03/06 05:20:34;;;;;;;;;;;;;;;1.57;53.64;102669.44;5015156;28;7258;-81
2021/03/06 05:22:59;;;;;;;;;;;;;;;1.53;53.99;102661.47;5013984;28;6795;-81
2021/03/06 05:25:25;;;;;;;;;;;;;;;1.56;53.51;102671.09;4997968;28;8403;-81
2021/03/06 05:27:52;;;;;;;;;;;;;;;1.53;53.54;102663.13;5000505;28;7246;-81
2021/03/06 05:30:18;;;;;;;;;;;;;;;1.51;53.23;102665.56;4998535;28;7464;-81
2021/03/06 05:32:43;;;;;;;;;;;;;;;1.46;53.32;102666.81;4991518;28;9486;-81
2021/03/06 05:35:09;;;;;;;;;;;;;;;1.47;54.31;102670.28;5000166;28;7312;-81
2021/03/06 05:37:35;;;;;;;;;;;;;;;1.45;54.43;102665.03;5001405;28;11238;-81
2021/03/06 05:40:01;;;;;;;;;;;;;;;1.43;54.33;102663.09;4985164;28;7298;-81
2021/03/06 05:42:28;;;;;;;;;;;;;;;1.38;54.43;102665.22;4986884;28;8600;-81
2021/03/06 05:44:54;;;;;;;;;;;;;;;1.37;54.26;102665.97;5003307;28;7274;-81
2021/03/06 05:47:19;;;;;;;;;;;;;;;1.38;54.20;102672.00;5000899;28;6825;-81
2021/03/06 05:49:45;;;;;;;;;;;;;;;1.38;54.08;102664.31;5002194;28;8360;-81
2021/03/06 05:52:11;;;;;;;;;;;;;;;1.33;54.57;102670.69;5016227;28;6791;-81
2021/03/06 05:54:37;;;;;;;;;;;;;;;1.35;53.75;102679.41;4993723;28;7106;-81
2021/03/06 05:57:04;;;;;;;;;;;;;;;1.28;54.21;102677.06;4983171;28;6990;-81
2021/03/06 05:59:29;;;;;;;;;;;;;;;1.28;54.43;102672.84;5000377;28;7297;-81
2021/03/06 06:01:55;;;;;;;;;;;;;;;1.27;54.50;102672.69;4994784;28;7268;-81
2021/03/06 06:04:20;;;;;;;;;;;;;;;1.28;54.19;102667.72;5001182;28;7210;-81
2021/03/06 06:06:46;;;;;;;;;;;;;;;1.25;54.04;102664.88;5000900;28;8777;-81
2021/03/06 06:09:11;;;;;;;;;;;;;;;1.27;53.83;102665.91;5002236;28;7059;-81
2021/03/06 06:11:37;;;;;;;;;;;;;;;1.30;53.97;102661.06;5000544;28;7232;-81
2021/03/06 06:14:03;;;;;;;;;;;;;;;1.25;54.06;102667.44;4997610;28;7284;-81
2021/03/06 06:16:32;;;;;;;;;;;;;;;1.22;53.92;102682.53;4996184;28;7122;-81
2021/03/06 06:19:00;;;;;;;;;;;;;;;1.27;53.76;102681.28;4999663;28;7256;-81
2021/03/06 06:21:48;;;;;;;;;;;;;;;1.27;53.63;102675.25;4999445;28;7389;-81
2021/03/06 06:24:17;;;;;;;;;;;;;;;1.31;53.20;102670.53;4998489;28;11436;-81
2021/03/06 06:26:59;;;;;;;;;;;;;;;1.33;53.69;102676.69;4999644;28;6807;-81
2021/03/06 06:29:40;;;;;;;;;;;;;;;1.31;53.21;102673.09;5000368;28;6863;-81
2021/03/06 06:32:07;;;;;;;;;;;;;;;1.32;53.19;102674.91;5001817;28;7175;-81
2021/03/06 06:34:33;;;;;;;;;;;;;;;1.34;53.23;102675.94;5002196;28;7238;-81
2021/03/06 06:36:58;;;;;;;;;;;;;;;1.36;53.18;102681.19;4987185;28;6812;-81
2021/03/06 06:39:29;;;;;;;;;;;;;;;1.38;52.96;102683.13;4986682;28;7480;-81
2021/03/06 06:41:58;;;;;;;;;;;;;;;1.36;53.36;102684.66;4987113;28;7275;-81
2021/03/06 06:44:24;;;;;;;;;;;;;;;1.42;53.62;102679.22;4998104;28;6987;-81
2021/03/06 06:46:50;;;;;;;;;;;;;;;1.39;53.44;102687.47;4984885;28;7513;-79
2021/03/06 06:49:16;;;;;;;;;;;;;;;1.42;53.36;102676.66;4985106;28;8264;-80
2021/03/06 06:52:04;;;;;;;;;;;;;;;1.47;52.48;102689.09;4987498;28;7099;-80
2021/03/06 06:54:30;;;;;;;;;;;;;;;1.46;52.92;102687.31;4995761;28;11011;-80
2021/03/06 06:57:08;;;;;;;;;;;;;;;1.49;52.52;102687.56;4985307;28;7131;-80
2021/03/06 06:59:34;;;;;;;;;;;;;;;1.54;53.07;102695.66;4992102;28;7248;-80
2021/03/06 07:02:09;;;;;;;;;;;;;;;1.57;53.34;102698.50;4982188;28;6791;-80
2021/03/06 07:04:55;;;;;;;;;;;;;;;1.62;52.86;102693.81;4982053;28;7426;-80
2021/03/06 07:07:21;;;;;;;;;;;;;;;1.65;52.63;102689.84;4984494;28;11197;-80
2021/03/06 07:10:08;;;;;;;;;;;;;;;1.70;52.68;102693.72;4981008;28;7190;-80
2021/03/06 07:12:41;;;;;;;;;;;;;;;1.70;52.22;102691.16;4985424;28;7382;-80
2021/03/06 07:15:16;;;;;;;;;;;;;;;1.74;52.79;102698.34;4987083;28;7130;-79
2021/03/06 07:17:42;;;;;;;;;;;;;;;1.92;52.34;102709.34;5003444;28;11020;-79
2021/03/06 07:20:12;;;;;;;;;;;;;;;2.02;51.43;102708.50;4968462;28;8195;-77
2021/03/06 07:22:37;;;;;;;;;;;;;;;2.02;52.00;102708.50;4967622;28;6887;-74
2021/03/06 07:25:04;;;;;;;;;;;;;;;2.03;52.11;102713.78;4989955;28;7315;-75
2021/03/06 07:27:30;;;;;;;;;;;;;;;2.18;51.67;102715.88;5002810;28;8715;-79
2021/03/06 07:29:56;;;;;;;;;;;;;;;2.21;51.39;102718.72;4982815;28;6847;-80
2021/03/06 07:32:23;;;;;;;;;;;;;;;2.29;51.29;102718.63;4987665;28;6863;-80
2021/03/06 07:34:49;;;;;;;;;;;;;;;2.40;51.44;102724.66;4987819;28;7246;-82
2021/03/06 07:37:14;;;;;;;;;;;;;;;2.46;50.53;102729.47;4987821;28;7391;-78
2021/03/06 07:39:42;;;;;;;;;;;;;;;2.53;50.59;102731.78;4987142;28;7273;-78
2021/03/06 07:42:25;;;;;;;;;;;;;;;2.58;50.63;102733.97;4975961;28;7174;-78
2021/03/06 07:44:51;;;;;;;;;;;;;;;2.66;50.38;102743.25;4967735;28;12303;-78
2021/03/06 07:47:17;;;;;;;;;;;;;;;2.72;50.10;102736.06;4978637;28;7209;-77
2021/03/06 07:49:43;;;;;;;;;;;;;;;2.77;50.33;102740.69;4967691;28;6808;-78
2021/03/06 07:52:09;;;;;;;;;;;;;;;2.82;49.84;102742.00;4983384;28;7182;-78
2021/03/06 07:54:36;;;;;;;;;;;;;;;2.89;50.76;102736.63;4983551;28;7090;-78
2021/03/06 07:57:01;;;;;;;;;;;;;;;2.96;50.50;102742.41;4983145;28;8675;-78
2021/03/06 07:59:56;;;;;;;;;;;;;;;3.00;49.30;102734.22;4976064;28;7202;-78
2021/03/06 08:02:31;;;;;;;;;;;;;;;3.05;49.83;102734.59;4978264;28;11175;-78
2021/03/06 08:04:57;;;;;;;;;;;;;;;3.14;50.40;102731.91;4980502;28;8294;-77
2021/03/06 08:07:39;;;;;;;;;;;;;;;3.21;49.45;102731.69;4987215;28;6798;-78
2021/03/06 08:10:05;;;;;;;;;;;;;;;3.24;49.87;102735.41;4986952;28;7702;-77
2021/03/06 08:12:31;;;;;;;;;;;;;;;3.30;49.09;102732.44;4983536;28;7088;-78
2021/03/06 08:14:57;;;;;;;;;;;;;;;3.33;49.42;102736.16;4980951;28;8554;-79
2021/03/06 08:17:36;;;;;;;;;;;;;;;3.39;49.29;102725.47;4979743;28;7289;-78
2021/03/06 08:20:02;;;;;;;;;;;;;;;3.43;49.19;102726.66;4989084;28;7200;-74
2021/03/06 08:22:27;;;;;;;;;;;;;;;3.51;49.34;102728.19;4990167;28;7146;-78
2021/03/06 08:24:53;;;;;;;;;;;;;;;3.53;49.50;102722.41;4982562;28;6953;-77
2021/03/06 08:27:18;;;;;;;;;;;;;;;3.60;49.67;102721.22;4996476;28;6835;-76
2021/03/06 08:29:52;;;;;;;;;;;;;;;3.64;49.25;102726.78;4972684;28;7013;-75
2021/03/06 08:32:23;;;;;;;;;;;;;;;3.69;48.95;102719.44;4975562;28;11055;-76
2021/03/06 08:34:53;;;;;;;;;;;;;;;3.73;48.75;102721.47;4982813;28;6983;-76
2021/03/06 08:37:22;;;;;;;;;;;;;;;3.76;49.16;102718.25;4980019;28;8489;-77
2021/03/06 08:40:06;;;;;;;;;;;;;;;3.82;49.19;102717.09;4983482;28;6830;-79
2021/03/06 08:42:51;;;;;;;;;;;;;;;3.89;48.95;102715.94;4982759;28;7893;-80
2021/03/06 08:45:21;;;;;;;;;;;;;;;3.95;48.51;102713.84;5001673;28;10974;-79
2021/03/06 08:48:01;;;;;;;;;;;;;;;4.01;48.56;102716.94;4994490;28;7468;-79
2021/03/06 08:50:29;;;;;;;;;;;;;;;4.06;48.39;102714.72;4971119;28;7699;-77
2021/03/06 08:53:03;;;;;;;;;;;;;;;4.12;48.95;102717.78;4987845;28;7255;-78
2021/03/06 08:55:40;;;;;;;;;;;;;;;4.19;48.60;102722.63;4983295;28;7418;-79
2021/03/06 08:58:06;;;;;;;;;;;;;;;4.24;48.32;102716.19;4981100;28;7051;-78
2021/03/06 09:00:37;;;;;;;;;;;;;;;4.28;48.58;102713.09;4994677;28;7305;-78
2021/03/06 09:03:23;;;;;;;;;;;;;;;4.37;48.24;102712.91;4989732;28;7134;-78
2021/03/06 09:05:49;;;;;;;;;;;;;;;4.41;48.04;102707.25;4997554;28;11432;-78
2021/03/06 09:08:18;;;;;;;;;;;;;;;4.47;48.18;102706.06;4996629;28;7253;-75
2021/03/06 09:10:44;;;;;;;;;;;;;;;4.51;47.96;102705.53;4992930;28;12534;-77
2021/03/06 09:13:16;;;;;;;;;;;;;;;4.56;48.32;102703.31;5003515;28;8342;-76
2021/03/06 09:15:42;;;;;;;;;;;;;;;4.64;47.64;102709.06;4980093;28;11346;-76
2021/03/06 09:18:10;;;;;;;;;;;;;;;4.70;47.46;102709.53;5005999;28;7036;-75
2021/03/06 09:20:38;;;;;;;;;;;;;;;4.73;47.73;102714.91;4995028;28;7339;-76
2021/03/06 09:23:04;;;;;;;;;;;;;;;4.81;47.53;102719.00;4997359;28;7226;-76
2021/03/06 09:25:34;;;;;;;;;;;;;;;4.86;48.00;102708.28;5013726;28;7122;-76
2021/03/06 09:28:00;;;;;;;;;;;;;;;4.90;47.82;102704.25;4998682;28;7977;-77
2021/03/06 09:30:29;;;;;;;;;;;;;;;4.95;47.32;102708.06;5011208;28;7091;-76
2021/03/06 09:32:55;;;;;;;;;;;;;;;5.04;47.52;102713.94;4999684;28;7386;-75
2021/03/06 09:35:21;;;;;;;;;;;;;;;5.09;47.09;102711.72;5014263;28;7399;-74
2021/03/06 09:37:46;;;;;;;;;;;;;;;5.15;46.91;102710.50;4995699;28;7123;-74
2021/03/06 09:40:22;;;;;;;;;;;;;;;5.22;46.85;102714.47;5000022;28;7203;-74
2021/03/06 09:42:53;;;;;;;;;;;;;;;5.31;47.17;102719.41;4977760;28;12764;-74
2021/03/06 09:45:19;;;;;;;;;;;;;;;5.34;47.39;102717.94;4997192;28;7292;-75
2021/03/06 09:47:45;;;;;;;;;;;;;;;5.34;46.95;102711.91;4982683;28;8552;-75
2021/03/06 09:50:13;;;;;;;;;;;;;;;5.45;47.21;102718.78;4998331;28;6840;-75
2021/03/06 09:52:39;;;;;;;;;;;;;;;5.50;46.87;102712.28;5002452;28;7501;-76
2021/03/06 09:55:17;;;;;;;;;;;;;;;5.51;46.84;102714.06;4998436;28;8291;-76
2021/03/06 09:57:43;;;;;;;;;;;;;;;5.58;46.61;102717.97;5010063;28;7443;-75
2021/03/06 10:00:23;;;;;;;;;;;;;;;5.64;46.37;102710.72;4996517;28;7104;-76
2021/03/06 10:02:50;;;;;;;;;;;;;;;5.72;46.95;102709.59;4991602;28;11005;-74
2021/03/06 10:05:20;;;;;;;;;;;;;;;5.82;47.76;102713.78;4991516;28;7241;-73
2021/03/06 10:07:45;;;;;;;;;;;;;;;7.22;62.17;102709.19;4988628;28;12763;-71
2021/03/06 10:10:11;;;;;;;;;;;;;;;7.14;57.56;102712.03;5006225;28;6805;-72
2021/03/06 10:12:42;;;;;;;;;;;;;;;7.00;59.07;102705.91;4991270;28;8078;-70
2021/03/06 10:15:08;;;;;;;;;;;;;;;7.07;59.77;102712.41;4976559;28;7020;-70
2021/03/06 10:17:34;;;;;;;;;;;;;;;7.12;59.35;102701.59;4982667;28;6823;-71
2021/03/06 10:19:59;;;;;;;;;;;;;;;7.20;58.88;102702.09;4985201;28;7250;-71
2021/03/06 10:22:25;;;;;;;;;;;;;;;7.27;59.15;102705.22;4982655;28;6933;-71
2021/03/06 10:25:03;;;;;;;;;;;;;;;7.38;57.95;102703.34;4999349;28;6873;-71
2021/03/06 10:27:37;;;;;;;;;;;;;;;7.45;57.37;102700.41;4981019;28;7436;-73
2021/03/06 10:30:16;;;;;;;;;;;;;;;7.59;57.29;102701.28;4985701;28;7246;-73
2021/03/06 10:32:45;;;;;;;;;;;;;;;7.70;56.34;102694.25;5001317;28;7270;-73
2021/03/06 10:35:38;;;;;;;;;;;;;;;7.89;55.96;102695.56;4982691;28;7206;-72
2021/03/06 10:38:08;;;;;;;;;;;;;;;8.01;55.53;102682.53;4984884;28;11225;-74
2021/03/06 10:40:45;;;;;;;;;;;;;;;8.18;54.87;102684.47;4983954;28;7047;-73
2021/03/06 10:43:32;;;;;;;;;;;;;;;8.30;54.01;102679.19;4976338;28;7565;-72
2021/03/06 10:46:10;;;;;;;;;;;;;;;8.47;53.37;102682.91;4983406;28;11217;-72
2021/03/06 10:48:35;;;;;;;;;;;;;;;8.50;52.95;102680.50;4987064;28;7156;-73
2021/03/06 10:51:01;;;;;;;;;;;;;;;8.50;52.57;102676.19;5003071;28;7282;-72
2021/03/06 10:53:28;;;;;;;;;;;;;;;8.67;52.08;102669.47;4985000;28;7425;-72
2021/03/06 10:55:53;;;;;;;;;;;;;;;8.76;50.98;102657.06;4990232;28;6999;-72
2021/03/06 10:58:19;;;;;;;;;;;;;;;8.93;50.42;102659.81;4991405;28;7194;-71
2021/03/06 11:00:45;;;;;;;;;;;;;;;9.05;50.30;102648.47;4985700;28;7971;-73
2021/03/06 11:03:11;;;;;;;;;;;;;;;9.21;49.92;102639.94;4988465;28;8588;-72
2021/03/06 11:05:38;;;;;;;;;;;;;;;9.39;48.96;102648.75;4973520;28;7166;-73
2021/03/06 11:08:21;;;;;;;;;;;;;;;9.56;48.29;102641.94;5005732;28;6970;-72
2021/03/06 11:10:49;;;;;;;;;;;;;;;9.70;47.98;102643.63;4990563;28;7608;-73
2021/03/06 11:13:14;;;;;;;;;;;;;;;9.80;47.47;102637.25;4990378;28;6800;-74
2021/03/06 11:15:52;;;;;;;;;;;;;;;10.00;46.71;102636.66;5026016;28;7078;-74
2021/03/06 11:18:18;;;;;;;;;;;;;;;10.11;46.53;102637.28;4989243;28;13177;-74
2021/03/06 11:20:44;;;;;;;;;;;;;;;10.25;46.44;102635.47;5008337;28;8681;-74
2021/03/06 11:23:09;;;;;;;;;;;;;;;10.39;45.47;102623.22;5008510;28;7431;-74
2021/03/06 11:25:35;;;;;;;;;;;;;;;10.58;45.25;102626.88;5004182;28;7449;-74
2021/03/06 11:28:07;;;;;;;;;;;;;;;10.82;44.46;102608.22;5005310;28;7087;-74
2021/03/06 11:30:40;;;;;;;;;;;;;;;10.99;44.31;102612.53;5003786;28;7229;-74
2021/03/06 11:33:07;;;;;;;;;;;;;;;11.20;43.84;102608.44;5003446;28;7429;-73
2021/03/06 11:35:33;;;;;;;;;;;;;;;11.30;43.05;102609.81;5004394;28;7297;-72
2021/03/06 11:37:58;;;;;;;;;;;;;;;11.41;42.57;102600.84;5004664;28;7649;-72
2021/03/06 11:40:25;;;;;;;;;;;;;;;11.52;42.63;102602.22;5004870;28;6911;-73
2021/03/06 11:42:51;;;;;;;;;;;;;;;11.66;42.57;102592.50;5006375;28;7079;-73
2021/03/06 11:45:17;;;;;;;;;;;;;;;11.85;42.00;102596.91;5009664;28;6863;-74
2021/03/06 11:47:43;;;;;;;;;;;;;;;11.98;41.76;102598.34;5009526;28;7328;-73
2021/03/06 11:50:09;;;;;;;;;;;;;;;12.14;41.31;102588.72;5007585;28;7353;-72
2021/03/06 11:52:35;;;;;;;;;;;;;;;12.35;40.36;102594.03;5011773;28;7320;-72
2021/03/06 11:55:01;;;;;;;;;;;;;;;12.74;38.51;102586.19;5000138;28;7068;-72
2021/03/06 11:57:26;;;;;;;;;;;;;;;12.87;39.18;102588.53;4997619;28;7402;-72
2021/03/06 11:59:53;;;;;;;;;;;;;;;12.96;38.92;102580.19;5000429;28;8530;-72
2021/03/06 12:02:18;;;;;;;;;;;;;;;13.14;39.05;102583.59;5012833;28;11205;-72
2021/03/06 12:04:44;;;;;;;;;;;;;;;13.36;38.01;102574.94;5002125;28;7109;-71
2021/03/06 12:07:09;;;;;;;;;;;;;;;13.55;37.92;102566.16;5000852;28;7234;-71
2021/03/06 12:09:35;;;;;;;;;;;;;;;13.72;37.74;102564.22;5015958;28;6833;-71
2021/03/06 12:12:00;;;;;;;;;;;;;;;13.91;36.74;102551.03;4998277;28;7206;-72
2021/03/06 12:14:26;;;;;;;;;;;;;;;14.09;37.16;102548.25;4995573;28;6851;-74
2021/03/06 12:16:52;;;;;;;;;;;;;;;14.30;36.68;102551.63;5013423;28;7266;-74
2021/03/06 12:19:17;;;;;;;;;;;;;;;14.48;35.64;102551.47;4996854;28;7351;-74
2021/03/06 12:21:43;;;;;;;;;;;;;;;14.65;35.49;102552.06;4998781;28;7194;-74
2021/03/06 12:24:09;;;;;;;;;;;;;;;14.88;35.24;102544.16;5013950;28;7393;-75
2021/03/06 12:26:34;;;;;;;;;;;;;;;15.07;34.97;102539.56;5014241;28;8440;-75
2021/03/06 12:29:00;;;;;;;;;;;;;;;15.35;34.47;102533.47;5014416;28;8468;-74
2021/03/06 12:31:26;;;;;;;;;;;;;;;15.49;33.76;102525.22;5000551;28;7585;-74
2021/03/06 12:33:51;;;;;;;;;;;;;;;15.71;33.39;102525.94;5000059;28;7071;-75
2021/03/06 12:36:17;;;;;;;;;;;;;;;15.97;33.45;102524.06;4997766;28;7055;-75
2021/03/06 12:38:42;;;;;;;;;;;;;;;16.27;32.40;102519.72;5000329;28;6809;-75
2021/03/06 12:41:08;;;;;;;;;;;;;;;16.48;32.12;102521.16;5013887;28;6950;-75
2021/03/06 12:43:33;;;;;;;;;;;;;;;16.76;32.10;102522.81;5013191;28;7071;-74
2021/03/06 12:45:59;;;;;;;;;;;;;;;17.03;31.42;102510.41;5013230;28;7283;-75
2021/03/06 12:48:25;;;;;;;;;;;;;;;17.29;30.87;102504.03;5001305;28;7896;-75
2021/03/06 12:50:51;;;;;;;;;;;;;;;17.55;30.78;102501.13;4998545;28;7071;-75
2021/03/06 12:53:16;;;;;;;;;;;;;;;17.83;30.56;102502.66;4998274;28;7170;-74
2021/03/06 12:55:42;;;;;;;;;;;;;;;18.09;30.13;102508.44;4998482;28;7337;-75
2021/03/06 12:58:08;;;;;;;;;;;;;;;18.42;29.63;102505.56;4995788;28;7174;-75
2021/03/06 13:00:34;;;;;;;;;;;;;;;18.69;29.07;102502.63;5011723;28;7190;-73
2021/03/06 13:02:59;;;;;;;;;;;;;;;18.98;28.86;102488.19;5013649;28;8952;-74